createdAt,value
2019-03-29T00:02:22.013Z,0.50
2019-03-29T00:04:55.700Z,0.50
2019-03-29T00:07:39.601Z,0.60
2019-03-29T00:10:04.455Z,0.50
2019-03-29T00:12:37.923Z,0.60
2019-03-29T00:15:11.663Z,0.40
2019-03-29T00:17:45.409Z,0.60
2019-03-29T00:20:20.045Z,0.30
2019-03-29T00:22:54.014Z,0.60
2019-03-29T00:25:27.712Z,0.63
2019-03-29T00:28:01.373Z,0.50
2019-03-29T00:30:34.995Z,0.93
2019-03-29T00:33:08.687Z,0.40
2019-03-29T00:35:42.647Z,0.50
2019-03-29T00:38:16.369Z,0.80
2019-03-29T00:40:49.918Z,0.60
2019-03-29T00:43:23.679Z,0.50
2019-03-29T00:45:57.191Z,0.60
2019-03-29T00:48:30.926Z,0.57
2019-03-29T00:51:04.457Z,0.60
2019-03-29T00:53:38.090Z,0.50
2019-03-29T00:56:12.936Z,0.70
2019-03-29T00:58:47.017Z,0.60
2019-03-29T01:01:20.565Z,0.50
2019-03-29T01:03:54.176Z,0.87
2019-03-29T01:06:27.679Z,0.70
2019-03-29T01:09:01.296Z,0.70
2019-03-29T01:11:34.807Z,0.80
2019-03-29T01:14:08.527Z,0.63
2019-03-29T01:16:42.175Z,0.80
2019-03-29T01:19:16.517Z,0.70
2019-03-29T01:21:50.191Z,0.60
2019-03-29T01:24:24.034Z,0.60
2019-03-29T01:26:57.866Z,0.70
2019-03-29T01:29:31.435Z,0.67
2019-03-29T01:32:05.132Z,0.70
2019-03-29T01:34:39.041Z,1.10
2019-03-29T01:37:12.855Z,0.60
2019-03-29T01:39:46.666Z,0.80
2019-03-29T01:42:20.545Z,0.60
2019-03-29T01:44:54.221Z,0.70
2019-03-29T01:47:27.763Z,0.60
2019-03-29T01:50:20.060Z,0.73
2019-03-29T01:52:53.616Z,0.63
2019-03-29T01:55:27.262Z,0.97
2019-03-29T01:58:00.787Z,0.80
2019-03-29T02:00:36.285Z,0.70
2019-03-29T02:03:10.354Z,1.00
2019-03-29T02:05:44.120Z,0.53
2019-03-29T02:08:17.867Z,0.60
2019-03-29T02:10:51.685Z,0.60
2019-03-29T02:13:26.111Z,0.80
2019-03-29T02:16:00.468Z,0.70
2019-03-29T02:18:34.251Z,0.73
2019-03-29T02:21:07.935Z,0.70
2019-03-29T02:23:41.507Z,0.70
2019-03-29T02:26:15.099Z,0.90
2019-03-29T02:28:48.803Z,0.90
2019-03-29T02:31:25.799Z,0.87
2019-03-29T02:33:57.649Z,1.90
2019-03-29T02:36:31.350Z,1.60
2019-03-29T02:39:05.725Z,1.73
2019-03-29T02:41:39.410Z,3.27
2019-03-29T02:44:13.005Z,1.80
2019-03-29T02:46:46.803Z,1.43
2019-03-29T02:49:20.513Z,1.47
2019-03-29T02:51:54.351Z,1.80
2019-03-29T02:54:28.021Z,1.83
2019-03-29T02:57:01.802Z,1.90
2019-03-29T02:59:35.603Z,1.60
2019-03-29T03:02:09.765Z,1.40
2019-03-29T03:04:43.301Z,1.53
2019-03-29T03:07:17.109Z,2.10
2019-03-29T03:09:50.892Z,1.70
2019-03-29T03:12:24.646Z,2.07
2019-03-29T03:14:58.569Z,1.90
2019-03-29T03:17:32.182Z,1.77
2019-03-29T03:20:06.237Z,1.90
2019-03-29T03:22:39.887Z,1.80
2019-03-29T03:25:14.809Z,1.90
2019-03-29T03:27:48.762Z,2.00
2019-03-29T03:30:22.936Z,1.60
2019-03-29T03:32:56.734Z,1.50
2019-03-29T03:35:30.988Z,2.00
2019-03-29T03:38:04.664Z,1.43
2019-03-29T03:40:38.707Z,1.60
2019-03-29T03:43:12.390Z,1.80
2019-03-29T03:45:45.929Z,1.67
2019-03-29T03:48:19.608Z,1.40
2019-03-29T03:50:53.932Z,1.63
2019-03-29T03:53:29.201Z,1.60
2019-03-29T03:56:05.024Z,1.50
2019-03-29T03:58:38.829Z,1.40
2019-03-29T04:01:12.364Z,1.43
2019-03-29T04:03:46.110Z,1.10
2019-03-29T04:06:19.997Z,1.50
2019-03-29T04:08:53.675Z,1.83
2019-03-29T04:11:27.409Z,1.80
2019-03-29T04:14:01.127Z,2.20
2019-03-29T04:16:35.362Z,2.10
2019-03-29T04:19:09.038Z,2.63
2019-03-29T04:21:47.490Z,2.10
2019-03-29T04:24:21.263Z,2.10
2019-03-29T04:26:56.434Z,2.40
2019-03-29T04:29:30.078Z,1.80
2019-03-29T04:32:03.901Z,1.50
2019-03-29T04:34:37.719Z,1.60
2019-03-29T04:37:11.334Z,1.47
2019-03-29T04:39:45.234Z,1.67
2019-03-29T04:42:19.035Z,1.97
2019-03-29T04:44:52.722Z,1.70
2019-03-29T04:47:26.336Z,1.90
2019-03-29T04:49:59.847Z,2.20
2019-03-29T04:52:33.414Z,2.30
2019-03-29T04:55:07.991Z,2.63
2019-03-29T04:57:41.707Z,2.13
2019-03-29T05:00:15.705Z,1.60
2019-03-29T05:02:49.675Z,1.60
2019-03-29T05:05:23.749Z,1.70
2019-03-29T05:07:58.118Z,1.70
2019-03-29T05:10:31.973Z,1.80
2019-03-29T05:13:05.694Z,1.70
2019-03-29T05:15:39.874Z,2.43
2019-03-29T05:18:13.542Z,2.37
2019-03-29T05:20:47.345Z,2.20
2019-03-29T05:23:21.495Z,2.40
2019-03-29T05:25:55.162Z,1.93
2019-03-29T05:28:29.276Z,2.50
2019-03-29T05:31:03.129Z,1.97
2019-03-29T05:33:36.693Z,2.20
2019-03-29T05:36:10.450Z,2.30
2019-03-29T05:38:43.999Z,1.90
2019-03-29T05:41:17.710Z,1.87
2019-03-29T05:43:51.459Z,1.33
2019-03-29T05:46:25.614Z,1.73
2019-03-29T05:48:59.541Z,1.40
2019-03-29T05:51:33.299Z,1.57
2019-03-29T05:54:08.122Z,1.87
2019-03-29T05:56:42.007Z,1.40
2019-03-29T05:59:15.762Z,1.27
2019-03-29T06:01:50.124Z,1.40
2019-03-29T06:04:24.234Z,1.73
2019-03-29T06:06:57.849Z,1.70
2019-03-29T06:09:34.966Z,1.70
2019-03-29T06:12:08.408Z,1.87
2019-03-29T06:14:42.411Z,1.70
2019-03-29T06:17:16.025Z,1.57
2019-03-29T06:19:51.174Z,1.67
2019-03-29T06:22:29.455Z,1.40
2019-03-29T06:25:29.206Z,1.17
2019-03-29T06:28:15.949Z,1.70
2019-03-29T06:30:54.765Z,3.13
2019-03-29T06:34:09.462Z,2.00
2019-03-29T06:36:46.506Z,1.40
2019-03-29T06:39:43.585Z,1.13
2019-03-29T06:46:00.592Z,1.57
2019-03-29T06:49:00.447Z,1.50
2019-03-29T06:52:14.376Z,1.60
2019-03-29T06:55:03.545Z,1.57
2019-03-29T06:58:26.078Z,1.50
2019-03-29T07:01:24.061Z,1.40
2019-03-29T07:04:23.474Z,1.43
2019-03-29T07:06:54.675Z,1.13
2019-03-29T07:09:41.323Z,1.50
2019-03-29T07:12:40.491Z,1.43
2019-03-29T07:15:34.463Z,1.63
2019-03-29T07:18:35.361Z,1.17
2019-03-29T07:21:25.183Z,1.67
2019-03-29T07:24:06.181Z,1.63
2019-03-29T07:26:57.394Z,1.57
2019-03-29T07:29:46.217Z,1.60
2019-03-29T07:32:23.356Z,1.50
2019-03-29T07:35:03.529Z,1.93
2019-03-29T07:37:43.093Z,1.73
2019-03-29T07:40:29.847Z,1.80
2019-03-29T07:43:31.554Z,1.87
2019-03-29T07:46:04.682Z,1.77
2019-03-29T07:48:46.355Z,1.40
2019-03-29T07:51:32.336Z,1.63
2019-03-29T07:54:31.406Z,1.60
2019-03-29T07:57:14.020Z,1.57
2019-03-29T07:59:48.311Z,1.40
2019-03-29T08:02:22.135Z,1.57
2019-03-29T08:04:55.740Z,1.40
2019-03-29T08:07:31.478Z,1.80
2019-03-29T08:10:04.544Z,1.67
2019-03-29T08:12:40.538Z,1.73
2019-03-29T08:15:13.894Z,1.33
2019-03-29T08:17:47.584Z,1.53
2019-03-29T08:20:41.687Z,1.60
2019-03-29T08:22:56.232Z,1.20
2019-03-29T08:25:30.143Z,1.67
2019-03-29T08:28:03.708Z,1.40
2019-03-29T08:30:37.521Z,1.23
2019-03-29T08:33:11.271Z,1.40
2019-03-29T08:35:45.154Z,1.60
2019-03-29T08:38:18.854Z,1.40
2019-03-29T08:40:52.616Z,1.33
2019-03-29T08:43:26.170Z,1.10
2019-03-29T08:45:59.913Z,1.50
2019-03-29T08:48:33.517Z,1.10
2019-03-29T08:51:07.657Z,1.53
2019-03-29T08:53:41.443Z,1.27
2019-03-29T08:56:15.413Z,1.63
2019-03-29T08:58:49.281Z,1.57
2019-03-29T09:01:24.899Z,1.20
2019-03-29T09:04:04.943Z,1.30
2019-03-29T09:06:33.459Z,1.30
2019-03-29T09:09:11.761Z,1.30
2019-03-29T09:11:43.773Z,1.37
2019-03-29T09:14:17.499Z,1.50
2019-03-29T09:16:51.470Z,1.23
2019-03-29T09:19:25.081Z,1.30
2019-03-29T09:21:58.880Z,1.23
2019-03-29T09:24:32.637Z,1.40
2019-03-29T09:27:06.558Z,1.40
2019-03-29T09:29:40.086Z,1.30
2019-03-29T09:32:13.887Z,1.23
2019-03-29T09:34:47.751Z,1.10
2019-03-29T09:37:21.553Z,1.30
2019-03-29T09:39:55.164Z,1.40
2019-03-29T09:42:30.087Z,1.00
2019-03-29T09:45:03.907Z,1.17
2019-03-29T09:47:40.502Z,1.30
2019-03-29T09:50:12.849Z,1.27
2019-03-29T09:52:46.956Z,1.33
2019-03-29T09:55:20.737Z,1.10
2019-03-29T09:57:55.709Z,1.97
2019-03-29T10:00:29.424Z,1.40
2019-03-29T10:03:03.061Z,1.17
2019-03-29T10:05:36.666Z,1.50
2019-03-29T10:08:10.630Z,1.70
2019-03-29T10:10:44.405Z,1.20
2019-03-29T10:13:17.989Z,1.50
2019-03-29T10:15:51.613Z,1.60
2019-03-29T10:18:25.351Z,1.40
2019-03-29T10:20:58.935Z,1.70
2019-03-29T10:23:32.731Z,1.43
2019-03-29T10:26:06.354Z,1.50
2019-03-29T10:28:39.970Z,1.60
2019-03-29T10:31:13.569Z,1.33
2019-03-29T10:33:49.048Z,1.63
2019-03-29T10:36:22.350Z,1.60
2019-03-29T10:38:55.941Z,1.63
2019-03-29T10:41:29.470Z,1.33
2019-03-29T10:44:03.010Z,1.20
2019-03-29T10:46:36.606Z,1.37
2019-03-29T10:49:10.407Z,1.30
2019-03-29T10:51:44.204Z,1.20
2019-03-29T10:54:17.898Z,1.70
2019-03-29T10:56:51.455Z,1.10
2019-03-29T10:59:27.768Z,1.70
2019-03-29T11:02:00.040Z,1.67
2019-03-29T11:04:33.648Z,1.47
2019-03-29T11:07:07.290Z,1.50
2019-03-29T11:09:42.959Z,1.40
2019-03-29T11:12:16.700Z,1.43
2019-03-29T11:14:50.645Z,1.40
2019-03-29T11:17:24.204Z,1.60
2019-03-29T11:19:57.759Z,1.53
2019-03-29T11:22:31.348Z,1.17
2019-03-29T11:25:05.168Z,1.53
2019-03-29T11:27:38.804Z,1.30
2019-03-29T11:30:12.598Z,1.70
2019-03-29T11:32:46.177Z,1.40
2019-03-29T11:35:20.085Z,1.20
2019-03-29T11:37:53.750Z,1.50
2019-03-29T11:40:27.451Z,1.00
2019-03-29T11:43:01.216Z,1.43
2019-03-29T11:45:35.336Z,1.30
2019-03-29T11:48:09.739Z,1.40
2019-03-29T11:50:43.695Z,1.10
2019-03-29T11:53:17.487Z,1.33
2019-03-29T11:55:51.299Z,1.40
2019-03-29T11:58:24.954Z,1.30
2019-03-29T12:00:58.604Z,1.33
2019-03-29T12:03:32.297Z,1.50
2019-03-29T12:06:06.083Z,1.17
2019-03-29T12:08:39.645Z,1.20
2019-03-29T12:11:13.162Z,1.40
2019-03-29T12:13:46.820Z,1.10
2019-03-29T12:16:20.394Z,1.27
2019-03-29T12:18:54.086Z,1.40
2019-03-29T12:21:28.009Z,1.30
2019-03-29T12:24:01.608Z,1.30
2019-03-29T12:26:35.161Z,1.50
2019-03-29T12:29:08.893Z,1.60
2019-03-29T12:31:42.788Z,1.50
2019-03-29T12:34:16.349Z,1.57
2019-03-29T12:36:50.307Z,1.50
2019-03-29T12:39:23.900Z,1.53
2019-03-29T12:41:57.494Z,1.40
2019-03-29T12:44:31.124Z,1.43
2019-03-29T12:47:04.819Z,1.00
2019-03-29T12:49:38.537Z,1.70
2019-03-29T12:52:12.191Z,1.67
2019-03-29T12:54:46.001Z,1.73
2019-03-29T12:57:19.775Z,1.03
2019-03-29T12:59:53.476Z,1.10
2019-03-29T13:02:27.167Z,1.23
2019-03-29T13:05:00.955Z,1.33
2019-03-29T13:07:34.687Z,1.10
2019-03-29T13:10:08.943Z,1.53
2019-03-29T13:12:42.728Z,1.40
2019-03-29T13:15:16.659Z,1.30
2019-03-29T13:17:50.229Z,1.67
2019-03-29T13:20:23.826Z,1.23
2019-03-29T13:22:57.584Z,1.53
2019-03-29T13:25:31.604Z,1.30
2019-03-29T13:28:05.208Z,1.13
2019-03-29T13:30:38.915Z,1.57
2019-03-29T13:33:12.757Z,1.23
2019-03-29T13:35:46.211Z,1.50
2019-03-29T13:38:20.659Z,1.70
2019-03-29T13:40:54.639Z,1.40
2019-03-29T13:43:28.178Z,1.43
2019-03-29T13:46:01.803Z,1.70
2019-03-29T13:48:35.636Z,1.57
2019-03-29T13:51:09.342Z,1.50
2019-03-29T13:53:43.039Z,1.30
2019-03-29T13:56:16.861Z,1.37
2019-03-29T13:58:50.476Z,1.40
2019-03-29T14:01:24.160Z,1.40
2019-03-29T14:03:58.043Z,1.40
2019-03-29T14:06:31.594Z,1.53
2019-03-29T14:09:05.447Z,1.30
2019-03-29T14:11:39.194Z,1.37
2019-03-29T14:14:13.070Z,1.37
2019-03-29T14:16:50.092Z,1.53
2019-03-29T14:19:25.867Z,1.50
2019-03-29T14:21:59.075Z,1.47
2019-03-29T14:24:32.602Z,1.43
2019-03-29T14:27:06.253Z,1.47
2019-03-29T14:29:40.039Z,1.17
2019-03-29T14:32:13.535Z,1.30
2019-03-29T14:34:47.155Z,1.60
2019-03-29T14:37:21.002Z,1.60
2019-03-29T14:39:54.733Z,1.57
2019-03-29T14:42:28.250Z,1.57
2019-03-29T14:45:02.057Z,1.73
2019-03-29T14:47:42.658Z,1.50
2019-03-29T14:50:11.415Z,1.57
2019-03-29T14:52:45.141Z,1.40
2019-03-29T14:55:21.389Z,1.40
2019-03-29T14:57:54.932Z,1.70
2019-03-29T15:00:44.186Z,1.50
2019-03-29T15:03:17.988Z,1.90
2019-03-29T15:05:51.673Z,1.80
2019-03-29T15:08:25.391Z,1.20
2019-03-29T15:10:58.985Z,1.50
2019-03-29T15:13:32.888Z,1.60
2019-03-29T15:16:06.733Z,1.73
2019-03-29T15:18:41.885Z,1.60
2019-03-29T15:21:16.699Z,1.63
2019-03-29T15:23:51.098Z,1.80
2019-03-29T15:26:25.104Z,1.33
2019-03-29T15:28:58.903Z,1.43
2019-03-29T15:31:33.254Z,1.50
2019-03-29T15:34:06.876Z,1.50
2019-03-29T15:36:40.868Z,1.40
2019-03-29T15:39:15.326Z,1.53
2019-03-29T15:41:49.610Z,1.50
2019-03-29T15:44:23.574Z,1.30
2019-03-29T15:46:57.942Z,1.30
2019-03-29T15:49:32.799Z,1.23
2019-03-29T15:52:06.704Z,1.50
2019-03-29T15:54:40.982Z,1.30
2019-03-29T15:57:14.954Z,1.20
2019-03-29T15:59:49.014Z,1.33
2019-03-29T16:02:23.087Z,1.40
2019-03-29T16:04:58.332Z,1.33
2019-03-29T16:07:35.003Z,1.30
2019-03-29T16:10:08.399Z,1.30
2019-03-29T16:12:42.292Z,1.30
2019-03-29T16:15:16.024Z,1.40
2019-03-29T16:17:54.664Z,1.00
2019-03-29T16:20:28.579Z,1.20
2019-03-29T16:23:03.082Z,1.37
2019-03-29T16:25:37.306Z,1.03
2019-03-29T16:28:11.088Z,1.20
2019-03-29T16:30:44.794Z,1.33
2019-03-29T16:33:18.939Z,1.30
2019-03-29T16:35:52.759Z,1.40
2019-03-29T16:38:27.505Z,1.50
2019-03-29T16:41:20.282Z,1.60
2019-03-29T16:43:54.463Z,1.70
2019-03-29T16:46:28.553Z,1.43
2019-03-29T16:49:02.304Z,1.67
2019-03-29T16:51:36.590Z,2.60
2019-03-29T16:54:10.771Z,2.50
2019-03-29T16:56:44.538Z,2.80
2019-03-29T16:59:18.151Z,2.83
2019-03-29T17:01:52.245Z,2.60
2019-03-29T17:04:26.035Z,2.50
2019-03-29T17:07:00.124Z,2.43
2019-03-29T17:09:33.949Z,2.20
2019-03-29T17:12:07.798Z,2.67
2019-03-29T17:14:41.865Z,2.40
2019-03-29T17:17:15.858Z,2.10
2019-03-29T17:19:49.766Z,1.93
2019-03-29T17:22:23.605Z,2.43
2019-03-29T17:24:57.507Z,2.27
2019-03-29T17:27:31.420Z,2.27
2019-03-29T17:30:07.495Z,2.17
2019-03-29T17:32:41.752Z,2.23
2019-03-29T17:35:21.176Z,1.70
2019-03-29T17:37:55.606Z,2.03
2019-03-29T17:40:30.330Z,1.93
2019-03-29T17:43:05.082Z,1.50
2019-03-29T17:45:39.285Z,1.70
2019-03-29T17:48:13.634Z,1.83
2019-03-29T17:50:47.680Z,1.63
2019-03-29T17:53:22.687Z,1.90
2019-03-29T17:55:56.831Z,1.90
2019-03-29T17:58:31.194Z,1.90
2019-03-29T18:01:05.797Z,1.80
2019-03-29T18:03:39.888Z,1.67
2019-03-29T18:06:14.511Z,1.87
2019-03-29T18:08:48.521Z,1.33
2019-03-29T18:11:22.202Z,1.50
2019-03-29T18:13:56.985Z,1.60
2019-03-29T18:16:31.308Z,2.03
2019-03-29T18:19:05.084Z,1.60
2019-03-29T18:21:39.510Z,1.70
2019-03-29T18:24:13.540Z,1.87
2019-03-29T18:26:47.481Z,1.40
2019-03-29T18:29:21.753Z,2.13
2019-03-29T18:31:56.041Z,1.83
2019-03-29T18:34:30.783Z,1.57
2019-03-29T18:37:05.724Z,1.90
2019-03-29T18:39:40.500Z,2.00
2019-03-29T18:42:15.199Z,2.10
2019-03-29T18:44:50.183Z,2.70
2019-03-29T18:47:25.141Z,1.90
2019-03-29T18:50:00.374Z,1.47
2019-03-29T18:52:34.265Z,1.70
2019-03-29T18:55:08.808Z,1.80
2019-03-29T18:57:43.330Z,1.67
2019-03-29T19:00:18.797Z,2.00
2019-03-29T19:02:52.589Z,1.53
2019-03-29T19:05:29.953Z,1.77
2019-03-29T19:08:04.250Z,2.07
2019-03-29T19:10:38.596Z,2.53
2019-03-29T19:13:12.970Z,2.07
2019-03-29T19:15:46.750Z,2.03
2019-03-29T19:18:20.802Z,2.70
2019-03-29T19:20:55.450Z,2.20
2019-03-29T19:23:29.513Z,2.40
2019-03-29T19:26:04.775Z,2.53
2019-03-29T19:28:39.176Z,1.90
2019-03-29T19:31:13.086Z,2.40
2019-03-29T19:33:47.227Z,2.23
2019-03-29T19:36:20.817Z,2.00
2019-03-29T19:38:55.659Z,2.17
2019-03-29T19:41:29.692Z,2.00
2019-03-29T19:44:03.656Z,2.10
2019-03-29T19:46:37.596Z,1.90
2019-03-29T19:49:12.010Z,2.10
2019-03-29T19:51:45.967Z,1.80
2019-03-29T19:54:20.806Z,1.90
2019-03-29T19:56:54.922Z,1.83
2019-03-29T19:59:28.802Z,2.20
2019-03-29T20:02:02.745Z,1.77
2019-03-29T20:04:37.075Z,1.67
2019-03-29T20:07:11.569Z,1.50
2019-03-29T20:09:45.655Z,1.57
2019-03-29T20:12:19.516Z,1.70
2019-03-29T20:14:53.424Z,1.73
2019-03-29T20:17:28.034Z,1.17
2019-03-29T20:20:02.287Z,1.17
2019-03-29T20:22:36.406Z,1.30
2019-03-29T20:25:10.884Z,1.37
2019-03-29T20:27:45.550Z,1.50
2019-03-29T20:30:20.102Z,1.20
2019-03-29T20:32:54.170Z,1.50
2019-03-29T20:35:28.250Z,1.20
2019-03-29T20:38:02.156Z,1.47
2019-03-29T20:40:36.608Z,1.30
2019-03-29T20:43:10.433Z,1.20
2019-03-29T20:45:44.579Z,1.30
2019-03-29T20:48:18.283Z,1.20
2019-03-29T20:50:52.597Z,1.30
2019-03-29T20:53:26.921Z,1.53
2019-03-29T20:56:00.848Z,1.70
2019-03-29T20:58:34.811Z,1.80
2019-03-29T21:01:09.371Z,2.20
2019-03-29T21:03:44.258Z,1.97
2019-03-29T21:06:20.793Z,1.87
2019-03-29T21:08:54.735Z,1.77
2019-03-29T21:11:29.017Z,1.57
2019-03-29T21:14:03.303Z,1.67
2019-03-29T21:16:37.585Z,1.80
2019-03-29T21:19:11.748Z,1.53
2019-03-29T21:21:45.482Z,1.50
2019-03-29T21:24:19.596Z,1.30
2019-03-29T21:26:53.528Z,1.30
2019-03-29T21:29:32.005Z,1.50
2019-03-29T21:32:05.785Z,1.50
2019-03-29T21:34:39.753Z,1.30
2019-03-29T21:37:14.230Z,1.50
2019-03-29T21:39:48.572Z,1.23
2019-03-29T21:42:22.367Z,1.37
2019-03-29T21:44:56.379Z,1.50
2019-03-29T21:47:30.269Z,1.40
2019-03-29T21:50:04.167Z,1.47
2019-03-29T21:52:39.539Z,1.17
2019-03-29T21:55:13.681Z,1.00
2019-03-29T21:57:47.488Z,1.30
2019-03-29T22:00:21.730Z,1.27
2019-03-29T22:02:56.120Z,1.13
2019-03-29T22:05:30.524Z,1.40
2019-03-29T22:08:05.317Z,1.20
2019-03-29T22:10:39.371Z,1.33
2019-03-29T22:13:13.021Z,1.30
2019-03-29T22:15:48.475Z,1.00
2019-03-29T22:18:22.606Z,1.20
2019-03-29T22:20:56.365Z,1.00
2019-03-29T22:23:30.106Z,1.17
2019-03-29T22:26:03.948Z,1.20
2019-03-29T22:28:38.181Z,1.10
2019-03-29T22:31:11.845Z,1.17
2019-03-29T22:33:45.984Z,1.10
2019-03-29T22:36:20.148Z,0.87
2019-03-29T22:38:53.751Z,0.80
2019-03-29T22:41:31.178Z,0.63
2019-03-29T22:44:05.117Z,0.70
2019-03-29T22:46:40.395Z,1.00
2019-03-29T22:49:13.979Z,1.10
2019-03-29T22:51:47.712Z,0.90
2019-03-29T22:54:21.530Z,0.70
2019-03-29T22:56:55.053Z,0.80
2019-03-29T22:59:29.445Z,1.20
2019-03-29T23:02:03.397Z,0.90
2019-03-29T23:04:37.567Z,1.13
2019-03-29T23:07:11.897Z,0.73
2019-03-29T23:09:45.911Z,1.00
2019-03-29T23:12:19.859Z,1.10
2019-03-29T23:14:53.718Z,0.90
2019-03-29T23:17:27.620Z,0.70
2019-03-29T23:20:01.327Z,0.70
2019-03-29T23:22:35.516Z,0.90
2019-03-29T23:25:09.306Z,1.03
2019-03-29T23:27:43.584Z,0.97
2019-03-29T23:30:18.079Z,0.90
2019-03-29T23:32:52.134Z,0.73
2019-03-29T23:35:26.143Z,0.90
2019-03-29T23:37:59.761Z,1.03
2019-03-29T23:40:33.394Z,1.00
2019-03-29T23:43:07.605Z,1.03
2019-03-29T23:45:41.751Z,0.90
2019-03-29T23:48:16.027Z,0.93
2019-03-29T23:50:50.512Z,0.97
2019-03-29T23:53:24.279Z,0.83
2019-03-29T23:55:58.119Z,0.90
2019-03-29T23:58:31.761Z,1.00
